Time;durP1;ratioP1;P1;durP2;ratioP2;P2;SDS_P1;SDS_P2;PMS_P1;PMS_P2;Temp;Humidity;BMP_temperature;BMP_pressure;BME280_temperature;BME280_humidity;BME280_pressure;Samples;Min_cycle;Max_cycle;Signal;HPM_P1;HPM_P2
2020/12/13 00:01:13;;;;;;;54.87;18.67;;;2.80;99.90;;;;;;4924478;29;20549;-66
2020/12/13 00:03:40;;;;;;;56.20;17.70;;;2.80;99.90;;;;;;4911961;29;20218;-66
2020/12/13 00:06:07;;;;;;;51.83;16.47;;;2.80;99.90;;;;;;4927008;29;20740;-66
2020/12/13 00:08:34;;;;;;;55.30;17.27;;;2.80;99.90;;;;;;4956815;28;20220;-66
2020/12/13 00:11:01;;;;;;;57.70;17.57;;;2.80;99.90;;;;;;4964508;28;20713;-66
2020/12/13 00:13:28;;;;;;;50.63;17.70;;;2.80;99.90;;;;;;4965868;28;20272;-66
2020/12/13 00:15:54;;;;;;;44.50;15.90;;;2.80;99.90;;;;;;4963160;28;20734;-66
2020/12/13 00:18:21;;;;;;;43.87;15.07;;;2.80;99.90;;;;;;4945013;28;20758;-66
2020/12/13 00:20:48;;;;;;;42.03;15.17;;;2.80;99.90;;;;;;4948781;28;20205;-66
2020/12/13 00:23:15;;;;;;;55.10;15.80;;;2.90;99.90;;;;;;4956257;28;20272;-66
2020/12/13 00:25:42;;;;;;;50.60;15.63;;;2.90;99.90;;;;;;4975578;28;20651;-66
2020/12/13 00:28:09;;;;;;;46.37;14.97;;;2.80;99.90;;;;;;4985205;28;20595;-66
2020/12/13 00:30:37;;;;;;;41.10;14.10;;;2.90;99.90;;;;;;4943727;29;20695;-66
2020/12/13 00:33:03;;;;;;;36.77;12.07;;;2.90;99.90;;;;;;4911941;28;20561;-66
2020/12/13 00:35:30;;;;;;;40.90;13.33;;;2.90;99.90;;;;;;4968969;28;20302;-66
2020/12/13 00:37:57;;;;;;;45.67;15.70;;;2.90;99.90;;;;;;4978011;28;20215;-66
2020/12/13 00:40:23;;;;;;;41.77;13.97;;;2.90;99.90;;;;;;4976624;28;20204;-66
2020/12/13 00:42:50;;;;;;;43.50;15.17;;;2.90;99.90;;;;;;4987518;28;20199;-66
2020/12/13 00:45:17;;;;;;;61.67;17.03;;;2.80;99.90;;;;;;4984633;28;20211;-66
2020/12/13 00:47:44;;;;;;;43.23;15.07;;;2.80;99.90;;;;;;4937518;28;20206;-66
2020/12/13 00:50:11;;;;;;;37.83;12.63;;;2.80;99.90;;;;;;4930448;29;20607;-66
2020/12/13 00:52:40;;;;;;;32.40;12.60;;;2.80;99.90;;;;;;4923889;29;20237;-66
2020/12/13 00:55:07;;;;;;;46.83;13.53;;;2.80;99.90;;;;;;4884597;29;20219;-66
2020/12/13 00:57:34;;;;;;;31.37;11.73;;;2.80;99.90;;;;;;4944546;28;20201;-66
2020/12/13 01:00:01;;;;;;;29.97;11.00;;;2.80;99.90;;;;;;4950499;28;20232;-66
2020/12/13 01:02:28;;;;;;;31.10;11.07;;;2.80;99.90;;;;;;4940405;28;20216;-66
2020/12/13 01:04:55;;;;;;;37.03;12.87;;;2.80;99.90;;;;;;4950043;29;20212;-66
2020/12/13 01:07:21;;;;;;;40.40;13.37;;;2.80;99.90;;;;;;4947933;28;20263;-67
2020/12/13 01:09:48;;;;;;;46.37;13.47;;;2.80;99.90;;;;;;4950800;28;20607;-66
2020/12/13 01:12:14;;;;;;;40.23;12.77;;;2.90;99.90;;;;;;4981603;28;20321;-66
2020/12/13 01:14:41;;;;;;;39.70;12.77;;;2.80;99.90;;;;;;4955336;28;20233;-66
2020/12/13 01:17:08;;;;;;;42.40;14.50;;;2.90;99.90;;;;;;4949080;29;20209;-66
2020/12/13 01:19:36;;;;;;;49.73;15.60;;;2.80;99.90;;;;;;4981362;28;20599;-66
2020/12/13 01:22:02;;;;;;;45.70;14.97;;;2.80;99.90;;;;;;5002341;28;20207;-66
2020/12/13 01:24:29;;;;;;;41.03;13.90;;;2.80;99.90;;;;;;5006411;28;20211;-66
2020/12/13 01:26:56;;;;;;;38.20;13.30;;;2.80;99.90;;;;;;5004300;28;20692;-66
2020/12/13 01:29:22;;;;;;;39.17;12.93;;;2.80;99.90;;;;;;4993411;28;20239;-66
2020/12/13 01:31:49;;;;;;;33.27;11.83;;;2.80;99.90;;;;;;4991661;28;20227;-67
2020/12/13 01:34:16;;;;;;;40.63;13.30;;;2.80;99.90;;;;;;4991190;28;20290;-66
2020/12/13 01:36:43;;;;;;;37.60;13.57;;;2.80;99.90;;;;;;4992871;28;20259;-67
2020/12/13 01:39:10;;;;;;;38.13;12.97;;;2.80;99.90;;;;;;4992829;28;20312;-66
2020/12/13 01:41:36;;;;;;;38.17;12.33;;;2.80;99.90;;;;;;5007114;28;20555;-66
2020/12/13 01:44:05;;;;;;;34.40;13.00;;;2.90;99.90;;;;;;5011013;28;20270;-66
2020/12/13 01:46:32;;;;;;;39.60;12.97;;;2.90;99.90;;;;;;5054704;28;20258;-66
2020/12/13 01:49:02;;;;;;;40.73;12.93;;;2.90;99.90;;;;;;5070662;28;20200;-66
2020/12/13 01:51:50;;;;;;;34.57;12.43;;;2.80;99.90;;;;;;5067172;28;20225;-66
2020/12/13 01:54:19;;;;;;;29.80;11.80;;;2.80;99.90;;;;;;5062199;28;20728;-66
2020/12/13 01:56:47;;;;;;;40.37;13.57;;;2.80;99.90;;;;;;5058883;28;20293;-66
2020/12/13 01:59:17;;;;;;;38.53;12.97;;;2.80;99.90;;;;;;5079646;28;20193;-67
2020/12/13 02:01:48;;;;;;;37.93;12.03;;;2.80;99.90;;;;;;5042040;28;20201;-66
2020/12/13 02:04:20;;;;;;;32.53;11.73;;;2.80;99.90;;;;;;5046605;28;20284;-66
2020/12/13 02:06:51;;;;;;;30.03;11.10;;;2.80;99.90;;;;;;5048924;28;20267;-66
2020/12/13 02:09:18;;;;;;;33.20;11.77;;;2.90;99.90;;;;;;5009430;28;20661;-66
2020/12/13 02:11:45;;;;;;;39.03;12.10;;;2.90;99.90;;;;;;5007592;28;20254;-66
2020/12/13 02:14:12;;;;;;;28.60;10.67;;;2.90;99.90;;;;;;5010673;28;20254;-66
2020/12/13 02:16:38;;;;;;;37.60;11.47;;;2.90;99.90;;;;;;5009044;28;20728;-66
2020/12/13 02:19:05;;;;;;;41.27;12.83;;;2.90;99.90;;;;;;5010463;28;20212;-66
2020/12/13 02:21:32;;;;;;;39.33;13.47;;;2.90;99.90;;;;;;5020436;28;20213;-66
2020/12/13 02:23:59;;;;;;;70.17;18.20;;;2.90;99.90;;;;;;5014921;28;20238;-66
2020/12/13 02:26:26;;;;;;;55.57;17.73;;;2.90;99.90;;;;;;5009703;28;20207;-66
2020/12/13 02:28:53;;;;;;;55.30;17.50;;;2.90;99.90;;;;;;5010207;28;20211;-66
2020/12/13 02:31:20;;;;;;;47.50;17.03;;;2.80;99.90;;;;;;5050160;28;20287;-66
2020/12/13 02:33:46;;;;;;;52.47;15.93;;;2.80;99.90;;;;;;5049426;28;20204;-66
2020/12/13 02:36:13;;;;;;;47.27;16.13;;;2.80;99.90;;;;;;5049130;28;20285;-66
2020/12/13 02:38:39;;;;;;;43.47;15.47;;;2.80;99.90;;;;;;5031002;28;20676;-66
2020/12/13 02:41:07;;;;;;;42.57;14.07;;;2.80;99.90;;;;;;5037909;28;20679;-65
2020/12/13 02:43:34;;;;;;;33.97;12.47;;;2.80;99.90;;;;;;5036462;28;20684;-66
2020/12/13 02:46:00;;;;;;;45.57;12.80;;;2.80;99.90;;;;;;5011534;28;20720;-66
2020/12/13 02:48:27;;;;;;;36.53;12.97;;;2.90;99.90;;;;;;5010528;28;20245;-66
2020/12/13 02:50:53;;;;;;;37.33;14.10;;;2.90;99.90;;;;;;5010804;28;20269;-66
2020/12/13 02:53:20;;;;;;;45.07;13.53;;;2.90;99.90;;;;;;4946662;28;20533;-65
2020/12/13 02:55:46;;;;;;;40.17;14.00;;;2.90;99.90;;;;;;4950815;28;20280;-65
2020/12/13 02:58:14;;;;;;;47.30;14.37;;;2.90;99.90;;;;;;4952105;29;20216;-66
2020/12/13 03:00:41;;;;;;;42.27;13.97;;;2.80;99.90;;;;;;4945499;28;20296;-66
2020/12/13 03:03:07;;;;;;;39.80;13.70;;;2.90;99.90;;;;;;4921796;29;20261;-66
2020/12/13 03:05:34;;;;;;;38.60;12.83;;;2.90;99.90;;;;;;4914166;29;20214;-66
2020/12/13 03:08:00;;;;;;;45.40;15.07;;;2.90;99.90;;;;;;4913964;29;20273;-66
2020/12/13 03:10:27;;;;;;;49.03;14.60;;;2.90;99.90;;;;;;4915989;28;20208;-66
2020/12/13 03:12:54;;;;;;;51.07;15.73;;;2.90;99.90;;;;;;4952037;29;20249;-66
2020/12/13 03:15:21;;;;;;;50.33;16.40;;;2.80;99.90;;;;;;5008242;28;20739;-66
2020/12/13 03:17:47;;;;;;;45.13;15.03;;;2.80;99.90;;;;;;5037619;28;20202;-66
2020/12/13 03:20:14;;;;;;;47.00;14.80;;;2.80;99.90;;;;;;5058454;28;20205;-66
2020/12/13 03:22:41;;;;;;;40.83;14.90;;;2.80;99.90;;;;;;5029722;28;20210;-66
2020/12/13 03:25:07;;;;;;;47.43;15.60;;;2.80;99.90;;;;;;5044595;28;20686;-65
2020/12/13 03:27:34;;;;;;;44.43;15.40;;;2.80;99.90;;;;;;5049341;28;20201;-66
2020/12/13 03:30:00;;;;;;;45.73;14.97;;;2.80;99.90;;;;;;5047374;28;20210;-66
2020/12/13 03:32:28;;;;;;;52.03;15.37;;;2.80;99.90;;;;;;5026049;28;20328;-66
2020/12/13 03:34:58;;;;;;;50.67;16.73;;;2.80;99.90;;;;;;5021172;28;20213;-66
2020/12/13 03:37:25;;;;;;;58.87;16.10;;;2.80;99.90;;;;;;5029978;28;20232;-66
2020/12/13 03:39:51;;;;;;;51.03;14.43;;;2.80;99.90;;;;;;5015421;28;20691;-66
2020/12/13 03:42:18;;;;;;;39.97;14.07;;;2.80;99.90;;;;;;4988919;28;20302;-66
2020/12/13 03:44:45;;;;;;;42.33;14.70;;;2.80;99.90;;;;;;4957792;28;20223;-66
2020/12/13 03:47:11;;;;;;;39.43;13.63;;;2.80;99.90;;;;;;4953045;28;20217;-66
2020/12/13 03:49:39;;;;;;;47.87;14.73;;;2.90;99.90;;;;;;4938237;29;20205;-67
2020/12/13 03:52:05;;;;;;;48.27;13.73;;;2.90;99.90;;;;;;4944636;29;20308;-66
2020/12/13 03:54:32;;;;;;;51.33;15.97;;;2.90;99.90;;;;;;4987579;28;20287;-65
2020/12/13 03:56:58;;;;;;;64.00;18.57;;;2.90;99.90;;;;;;4981796;28;20200;-66
2020/12/13 03:59:25;;;;;;;67.43;18.50;;;2.90;99.90;;;;;;4969740;28;20234;-65
2020/12/13 04:01:52;;;;;;;50.50;16.57;;;2.80;99.90;;;;;;4948354;28;20351;-66
2020/12/13 04:04:18;;;;;;;59.80;17.73;;;2.80;99.90;;;;;;4944751;29;20209;-66
2020/12/13 04:06:46;;;;;;;45.77;16.07;;;2.80;99.90;;;;;;4989598;28;20273;-66
2020/12/13 04:09:12;;;;;;;57.13;18.07;;;2.80;99.90;;;;;;4990096;28;20330;-66
2020/12/13 04:11:39;;;;;;;52.13;16.97;;;2.70;99.90;;;;;;4988690;28;20251;-66
2020/12/13 04:14:05;;;;;;;47.07;15.50;;;2.70;99.90;;;;;;5036839;28;20233;-66
2020/12/13 04:16:32;;;;;;;45.63;14.77;;;2.70;99.90;;;;;;5031916;28;20758;-67
2020/12/13 04:18:59;;;;;;;56.10;16.50;;;2.70;99.90;;;;;;5009940;28;20306;-66
2020/12/13 04:21:26;;;;;;;70.67;19.70;;;2.70;99.90;;;;;;4972527;28;20227;-66
2020/12/13 04:23:53;;;;;;;56.07;18.83;;;2.70;99.90;;;;;;4970295;28;20242;-66
2020/12/13 04:26:20;;;;;;;50.57;17.33;;;2.60;99.90;;;;;;4975543;28;20200;-66
2020/12/13 04:28:47;;;;;;;46.47;16.03;;;2.70;99.90;;;;;;4970310;28;20222;-66
2020/12/13 04:31:13;;;;;;;51.00;17.57;;;2.60;99.90;;;;;;4988450;28;20231;-66
2020/12/13 04:33:40;;;;;;;47.00;15.93;;;2.70;99.90;;;;;;5004185;28;20214;-67
2020/12/13 04:36:07;;;;;;;44.37;15.27;;;2.70;99.90;;;;;;5006538;28;20211;-66
2020/12/13 04:38:33;;;;;;;49.00;15.03;;;2.70;99.90;;;;;;4975404;28;20243;-67
2020/12/13 04:41:01;;;;;;;42.93;15.50;;;2.70;99.90;;;;;;4977013;28;20220;-66
2020/12/13 04:43:28;;;;;;;50.20;17.40;;;2.80;99.90;;;;;;4968967;28;20266;-66
2020/12/13 04:45:55;;;;;;;46.80;15.83;;;2.70;99.90;;;;;;4965360;28;20212;-66
2020/12/13 04:48:23;;;;;;;40.10;15.40;;;2.70;99.90;;;;;;4976497;28;20776;-65
2020/12/13 04:50:51;;;;;;;37.77;13.80;;;2.70;99.90;;;;;;4993054;28;20242;-66
2020/12/13 04:53:18;;;;;;;53.33;14.93;;;2.80;99.90;;;;;;4992130;28;20235;-66
2020/12/13 04:55:53;;;;;;;45.90;16.53;;;2.80;99.90;;;;;;4987541;28;20208;-65
2020/12/13 04:58:21;;;;;;;52.43;16.73;;;2.80;99.90;;;;;;5018334;28;20352;-66
2020/12/13 05:00:54;;;;;;;49.97;15.07;;;2.80;99.90;;;;;;5027812;28;20214;-65
2020/12/13 05:03:22;;;;;;;47.93;15.60;;;2.80;99.90;;;;;;5008534;28;20211;-67
2020/12/13 05:05:49;;;;;;;46.47;14.80;;;2.80;99.90;;;;;;5008619;28;20225;-66
2020/12/13 05:08:16;;;;;;;44.87;14.17;;;2.80;99.90;;;;;;5009083;28;20218;-66
2020/12/13 05:10:42;;;;;;;43.67;14.37;;;2.80;99.90;;;;;;5025785;28;20202;-66
2020/12/13 05:13:10;;;;;;;48.13;15.50;;;2.80;99.90;;;;;;5020914;28;20210;-65
2020/12/13 05:15:39;;;;;;;46.73;15.53;;;2.90;99.90;;;;;;5022262;28;20712;-65
2020/12/13 05:18:06;;;;;;;53.53;15.80;;;2.80;99.90;;;;;;5034269;28;20231;-65
2020/12/13 05:20:33;;;;;;;53.23;15.63;;;2.80;99.90;;;;;;5027580;28;20214;-65
2020/12/13 05:23:01;;;;;;;49.77;16.63;;;2.80;99.90;;;;;;5019570;28;20203;-66
2020/12/13 05:25:32;;;;;;;50.63;16.73;;;2.80;99.90;;;;;;5009576;28;20210;-65
2020/12/13 05:28:00;;;;;;;56.27;18.27;;;2.80;99.90;;;;;;5027987;28;20207;-66
2020/12/13 05:30:31;;;;;;;59.07;18.30;;;2.70;99.90;;;;;;5014234;28;20736;-66
2020/12/13 05:33:01;;;;;;;50.13;15.90;;;2.70;99.90;;;;;;4980391;28;20316;-66
2020/12/13 05:35:28;;;;;;;47.57;16.33;;;2.70;99.90;;;;;;4988920;28;20997;-66
2020/12/13 05:37:56;;;;;;;41.43;15.27;;;2.70;99.90;;;;;;4977367;28;20222;-65
2020/12/13 05:40:23;;;;;;;48.80;16.33;;;2.70;99.90;;;;;;4989460;28;20210;-66
2020/12/13 05:42:59;;;;;;;51.37;17.27;;;2.70;99.90;;;;;;5042954;28;20350;-66
2020/12/13 05:45:35;;;;;;;44.83;15.47;;;2.70;99.90;;;;;;5040752;28;20652;-66
2020/12/13 05:53:26;;;;;;;44.83;14.83;;;2.70;99.90;;;;;;4970215;28;20703;-65
2020/12/13 05:55:56;;;;;;;49.63;15.80;;;2.70;99.90;;;;;;4959676;28;20236;-66
2020/12/13 05:58:25;;;;;;;39.90;13.90;;;2.70;99.90;;;;;;4945118;29;20292;-65
2020/12/13 06:00:53;;;;;;;37.23;13.30;;;2.80;99.90;;;;;;4947107;29;20213;-65
2020/12/13 06:03:31;;;;;;;45.00;15.17;;;2.80;99.90;;;;;;4951867;28;20244;-66
2020/12/13 06:06:05;;;;;;;45.27;16.97;;;2.80;99.90;;;;;;4975841;28;20578;-66
2020/12/13 06:09:02;;;;;;;48.10;16.90;;;2.80;99.90;;;;;;4987935;28;20296;-66
2020/12/13 06:11:42;;;;;;;45.80;16.47;;;2.80;99.90;;;;;;4946387;28;20707;-66
2020/12/13 06:14:13;;;;;;;47.80;16.80;;;2.80;99.90;;;;;;4942673;28;20287;-66
2020/12/13 06:16:40;;;;;;;45.03;15.40;;;2.80;99.90;;;;;;4946231;28;20318;-66
2020/12/13 06:19:09;;;;;;;44.37;17.10;;;2.80;99.90;;;;;;4934912;28;20218;-66
2020/12/13 06:21:37;;;;;;;45.37;16.50;;;2.80;99.90;;;;;;4929304;29;20276;-66
2020/12/13 06:24:06;;;;;;;45.00;16.20;;;2.80;99.90;;;;;;4931501;29;20253;-66
2020/12/13 06:26:34;;;;;;;39.17;15.07;;;2.80;99.90;;;;;;4939134;29;20382;-66
2020/12/13 06:29:02;;;;;;;43.00;14.37;;;2.80;99.90;;;;;;4939064;28;20700;-66
2020/12/13 06:31:29;;;;;;;42.40;15.57;;;2.80;99.90;;;;;;4980303;28;20211;-65
2020/12/13 06:33:55;;;;;;;38.27;14.50;;;2.80;99.90;;;;;;4991446;28;20349;-66
2020/12/13 06:36:27;;;;;;;34.80;13.73;;;2.80;99.90;;;;;;4990796;28;20722;-65
2020/12/13 06:38:56;;;;;;;35.63;14.90;;;2.80;99.90;;;;;;4992835;28;20211;-65
2020/12/13 06:41:24;;;;;;;38.93;14.87;;;2.80;99.90;;;;;;4990159;28;20250;-66
2020/12/13 06:44:06;;;;;;;35.83;14.03;;;2.80;99.90;;;;;;4995892;28;20226;-66
2020/12/13 06:46:38;;;;;;;43.13;15.53;;;2.80;99.90;;;;;;4995064;28;20234;-65
2020/12/13 06:49:05;;;;;;;34.77;14.80;;;2.80;99.90;;;;;;4989438;28;20337;-65
2020/12/13 06:51:34;;;;;;;35.83;13.73;;;2.80;99.90;;;;;;4969505;28;20239;-66
2020/12/13 06:54:03;;;;;;;31.90;14.33;;;2.80;99.90;;;;;;5038103;28;20699;-66
2020/12/13 06:56:29;;;;;;;37.07;14.77;;;2.80;99.90;;;;;;5014412;28;20207;-66
2020/12/13 06:58:58;;;;;;;45.37;16.17;;;2.80;99.90;;;;;;5007514;28;20211;-66
2020/12/13 07:01:27;;;;;;;37.93;14.53;;;2.80;99.90;;;;;;5023106;28;20206;-65
2020/12/13 07:03:58;;;;;;;40.47;14.67;;;2.80;99.90;;;;;;5012848;28;20642;-66
2020/12/13 07:06:43;;;;;;;37.70;15.10;;;2.80;99.90;;;;;;5011621;28;20221;-65
2020/12/13 07:09:15;;;;;;;38.43;15.13;;;2.80;99.90;;;;;;5015318;28;20210;-66
2020/12/13 07:11:43;;;;;;;37.57;13.87;;;2.90;99.90;;;;;;5009757;28;20322;-66
2020/12/13 07:14:12;;;;;;;39.43;15.47;;;2.90;99.90;;;;;;5007808;28;20239;-66
2020/12/13 07:16:42;;;;;;;38.70;13.97;;;2.90;99.90;;;;;;5004854;28;20682;-66
2020/12/13 07:19:10;;;;;;;35.70;14.63;;;2.90;99.90;;;;;;5015364;28;20191;-66
2020/12/13 07:21:38;;;;;;;35.40;13.87;;;2.90;99.90;;;;;;5017026;28;20214;-67
2020/12/13 07:24:07;;;;;;;34.67;13.73;;;2.90;99.90;;;;;;5030317;28;20584;-67
2020/12/13 07:26:37;;;;;;;38.70;14.63;;;2.90;99.90;;;;;;5043261;28;20208;-67
2020/12/13 07:29:05;;;;;;;32.97;13.70;;;3.00;99.90;;;;;;5038561;28;20711;-67
2020/12/13 07:31:36;;;;;;;31.83;13.63;;;3.00;99.90;;;;;;5031208;28;20628;-67
2020/12/13 07:34:04;;;;;;;34.67;13.27;;;3.00;99.90;;;;;;5029429;28;20766;-68
2020/12/13 07:36:31;;;;;;;28.47;12.33;;;3.00;99.90;;;;;;5045135;28;20488;-67
2020/12/13 07:38:58;;;;;;;36.00;12.97;;;3.00;99.90;;;;;;5040504;28;20553;-67
2020/12/13 07:41:26;;;;;;;34.10;12.80;;;3.10;99.90;;;;;;5040940;28;20263;-67
2020/12/13 07:43:58;;;;;;;37.20;14.03;;;3.10;99.90;;;;;;5017017;28;20230;-67
2020/12/13 07:46:26;;;;;;;40.70;14.77;;;3.10;99.90;;;;;;5026550;28;20203;-67
2020/12/13 07:49:08;;;;;;;41.23;15.37;;;3.10;99.90;;;;;;5027906;28;20317;-67
2020/12/13 07:51:36;;;;;;;36.93;15.20;;;3.00;99.90;;;;;;5019070;28;20294;-67
2020/12/13 07:54:14;;;;;;;38.33;14.57;;;3.00;99.90;;;;;;5031950;28;20206;-67
2020/12/13 07:56:42;;;;;;;40.00;16.70;;;3.00;99.90;;;;;;5019060;28;20326;-67
2020/12/13 07:59:14;;;;;;;44.07;16.33;;;3.10;99.90;;;;;;4988340;28;20200;-67
2020/12/13 08:01:43;;;;;;;44.93;15.87;;;3.00;99.90;;;;;;4980809;28;20284;-67
2020/12/13 08:04:10;;;;;;;39.67;15.97;;;3.00;99.90;;;;;;4986319;28;20691;-67
2020/12/13 08:06:36;;;;;;;39.63;16.10;;;3.00;99.90;;;;;;5028571;28;20626;-67
2020/12/13 08:09:08;;;;;;;43.70;17.07;;;3.10;99.90;;;;;;5028586;28;20572;-67
2020/12/13 08:11:35;;;;;;;43.57;17.73;;;3.10;99.90;;;;;;5027110;28;20290;-67
2020/12/13 08:14:05;;;;;;;47.90;17.67;;;3.10;99.90;;;;;;5020351;28;20595;-68
2020/12/13 08:16:32;;;;;;;50.00;17.87;;;3.10;99.90;;;;;;5021613;28;20260;-66
2020/12/13 08:19:05;;;;;;;48.67;17.93;;;3.10;99.90;;;;;;5029103;28;20361;-66
2020/12/13 08:21:39;;;;;;;52.50;19.60;;;3.10;99.90;;;;;;5027167;28;20285;-66
2020/12/13 08:24:08;;;;;;;66.20;22.20;;;3.10;99.90;;;;;;5028711;28;20202;-66
2020/12/13 08:26:36;;;;;;;78.40;26.43;;;3.20;99.90;;;;;;5027177;28;20228;-66
2020/12/13 08:29:04;;;;;;;83.67;27.60;;;3.20;99.90;;;;;;5028139;28;20297;-67
2020/12/13 08:31:31;;;;;;;75.77;26.30;;;3.20;99.90;;;;;;5027668;28;20198;-66
2020/12/13 08:34:04;;;;;;;69.00;26.13;;;3.20;99.90;;;;;;5032287;28;20297;-67
2020/12/13 08:36:32;;;;;;;65.90;26.43;;;3.20;99.90;;;;;;5014333;28;20793;-67
2020/12/13 08:39:06;;;;;;;63.30;25.27;;;3.20;99.90;;;;;;5010229;28;20202;-67
2020/12/13 08:41:33;;;;;;;47.60;20.23;;;3.20;99.90;;;;;;5000946;28;20239;-66
2020/12/13 08:44:00;;;;;;;46.40;20.70;;;3.20;99.90;;;;;;4986349;28;20290;-67
2020/12/13 08:46:32;;;;;;;52.73;20.50;;;3.20;99.90;;;;;;4942464;28;20518;-67
2020/12/13 08:48:59;;;;;;;45.10;17.67;;;3.20;99.90;;;;;;4907102;29;20218;-68
2020/12/13 08:51:27;;;;;;;45.80;18.20;;;3.20;99.90;;;;;;4908939;29;20210;-68
2020/12/13 08:54:03;;;;;;;50.57;18.57;;;3.30;99.90;;;;;;4916012;29;20285;-67
2020/12/13 08:56:35;;;;;;;55.93;21.00;;;3.30;99.90;;;;;;4904504;29;20615;-66
2020/12/13 08:59:07;;;;;;;48.73;19.37;;;3.30;99.90;;;;;;4912208;29;20209;-67
2020/12/13 09:01:37;;;;;;;47.27;18.40;;;3.30;99.90;;;;;;4910941;29;20211;-67
2020/12/13 09:04:19;;;;;;;44.70;17.40;;;3.30;99.90;;;;;;4915512;29;20221;-67
2020/12/13 09:06:54;;;;;;;40.33;16.63;;;3.30;99.90;;;;;;4904972;29;20642;-66
2020/12/13 09:09:21;;;;;;;37.67;16.27;;;3.40;99.90;;;;;;4930020;29;20612;-67
2020/12/13 09:11:49;;;;;;;41.30;16.87;;;3.40;99.90;;;;;;4929051;29;20400;-67
2020/12/13 09:14:29;;;;;;;34.50;14.43;;;3.40;99.90;;;;;;4911701;29;20229;-66
2020/12/13 09:16:57;;;;;;;35.63;14.83;;;3.30;99.90;;;;;;4927875;29;20702;-65
2020/12/13 09:19:24;;;;;;;31.73;13.90;;;3.40;99.90;;;;;;4935277;29;20213;-67
2020/12/13 09:21:57;;;;;;;28.33;12.63;;;3.30;99.90;;;;;;4949494;28;20294;-67
2020/12/13 09:24:26;;;;;;;27.77;12.43;;;3.40;99.90;;;;;;4965197;28;20739;-68
2020/12/13 09:27:07;;;;;;;30.70;12.87;;;3.40;99.90;;;;;;4968602;28;20631;-68
2020/12/13 09:29:35;;;;;;;26.17;12.50;;;3.40;99.90;;;;;;4928953;29;20210;-68
2020/12/13 09:32:04;;;;;;;28.77;12.73;;;3.50;99.90;;;;;;4930729;29;20225;-68
2020/12/13 09:34:30;;;;;;;30.57;12.47;;;3.50;99.90;;;;;;4930096;29;20265;-66
2020/12/13 09:36:57;;;;;;;26.23;11.57;;;3.50;99.90;;;;;;4930352;29;20284;-68
2020/12/13 09:39:24;;;;;;;27.03;12.00;;;3.60;99.90;;;;;;4933726;28;20261;-67
2020/12/13 09:41:54;;;;;;;30.80;13.00;;;3.50;99.90;;;;;;4964578;28;20211;-68
2020/12/13 09:44:21;;;;;;;30.50;12.27;;;3.50;99.90;;;;;;4948928;28;20714;-67
2020/12/13 09:46:47;;;;;;;34.50;13.63;;;3.60;99.90;;;;;;4965951;28;20208;-68
2020/12/13 09:49:15;;;;;;;35.50;13.90;;;3.60;99.90;;;;;;4972346;28;20919;-67
2020/12/13 09:51:41;;;;;;;27.97;11.80;;;3.60;99.90;;;;;;5010408;28;20251;-67
2020/12/13 09:54:08;;;;;;;32.80;13.70;;;3.70;99.90;;;;;;5011465;28;20214;-68
2020/12/13 09:56:34;;;;;;;30.33;13.50;;;3.70;99.90;;;;;;5048499;28;20297;-68
2020/12/13 09:59:01;;;;;;;35.80;15.00;;;3.70;99.90;;;;;;5025084;28;20228;-66
2020/12/13 10:01:28;;;;;;;40.43;16.23;;;3.70;99.90;;;;;;5022040;28;20282;-66
2020/12/13 10:03:57;;;;;;;41.40;16.80;;;3.70;99.90;;;;;;5031616;28;20333;-66
2020/12/13 10:06:35;;;;;;;42.07;16.63;;;3.70;99.90;;;;;;5052514;28;20206;-66
2020/12/13 10:09:05;;;;;;;36.60;16.43;;;3.70;99.90;;;;;;5055243;28;20205;-69
2020/12/13 10:11:32;;;;;;;37.70;15.93;;;3.80;99.90;;;;;;5029456;28;20206;-65
2020/12/13 10:14:00;;;;;;;35.93;15.30;;;3.80;99.90;;;;;;5022069;28;20242;-66
2020/12/13 10:16:38;;;;;;;;;;;;;;;;;;;;;
2020/12/13 10:19:05;;;;;;;33.33;15.10;;;3.80;99.90;;;;;;4951543;28;20534;-67
2020/12/13 10:21:36;;;;;;;34.27;14.87;;;3.80;99.90;;;;;;4987399;28;20239;-68
2020/12/13 10:24:06;;;;;;;33.83;14.53;;;3.80;99.90;;;;;;4972006;28;20214;-68
2020/12/13 10:26:35;;;;;;;30.80;14.23;;;3.70;99.90;;;;;;4969573;28;20218;-68
2020/12/13 10:29:03;;;;;;;29.87;14.07;;;3.80;99.90;;;;;;4960571;28;20208;-67
2020/12/13 10:31:31;;;;;;;26.33;12.87;;;3.80;99.90;;;;;;4950542;28;20201;-67
2020/12/13 10:34:01;;;;;;;28.20;11.83;;;3.90;99.90;;;;;;4970458;28;20231;-68
2020/12/13 10:36:28;;;;;;;31.47;12.90;;;3.90;99.90;;;;;;4955403;28;20212;-67
2020/12/13 10:38:58;;;;;;;26.00;11.53;;;4.00;99.90;;;;;;4978915;28;20203;-67
2020/12/13 10:41:27;;;;;;;29.10;12.40;;;4.00;99.90;;;;;;4971180;28;20791;-67
2020/12/13 10:43:53;;;;;;;26.10;11.27;;;4.00;99.90;;;;;;4989571;28;20211;-67
2020/12/13 10:46:20;;;;;;;22.60;9.60;;;3.90;99.90;;;;;;4990666;28;20658;-68
2020/12/13 10:48:46;;;;;;;26.60;10.30;;;3.90;99.90;;;;;;4971306;28;20580;-67
2020/12/13 10:51:15;;;;;;;30.40;10.33;;;4.00;99.90;;;;;;4985862;28;20646;-67
2020/12/13 10:53:41;;;;;;;27.27;10.30;;;4.00;99.90;;;;;;4969983;28;20232;-67
2020/12/13 10:56:11;;;;;;;24.43;9.97;;;4.00;99.90;;;;;;4968938;28;20240;-67
2020/12/13 10:58:39;;;;;;;19.43;9.03;;;3.90;99.90;;;;;;4970137;28;20205;-68
2020/12/13 11:01:11;;;;;;;16.33;8.37;;;3.90;99.90;;;;;;4969074;28;20208;-67
2020/12/13 11:03:38;;;;;;;15.83;7.90;;;3.90;99.90;;;;;;5004366;28;20637;-67
2020/12/13 11:06:08;;;;;;;47.97;12.97;;;3.90;99.90;;;;;;4955452;28;20267;-67
2020/12/13 11:08:35;;;;;;;41.80;14.13;;;4.00;99.90;;;;;;4967137;28;20293;-67
2020/12/13 11:11:02;;;;;;;39.37;13.30;;;4.00;99.90;;;;;;4972930;28;20258;-67
2020/12/13 11:13:29;;;;;;;41.03;13.50;;;4.00;99.90;;;;;;4968769;28;20286;-67
2020/12/13 11:15:56;;;;;;;37.07;14.10;;;4.00;99.90;;;;;;4970232;28;20230;-66
2020/12/13 11:18:23;;;;;;;34.47;13.53;;;4.00;99.90;;;;;;4966676;28;20656;-66
2020/12/13 11:20:49;;;;;;;30.93;11.63;;;4.00;99.90;;;;;;4965285;28;20200;-67
2020/12/13 11:23:16;;;;;;;25.30;10.10;;;4.00;99.90;;;;;;4952660;28;20205;-67
2020/12/13 11:25:42;;;;;;;23.27;9.33;;;4.00;99.90;;;;;;4967304;28;20335;-66
2020/12/13 11:28:09;;;;;;;20.60;9.10;;;4.10;99.90;;;;;;4969539;28;20213;-66
2020/12/13 11:30:36;;;;;;;23.80;8.47;;;4.00;99.90;;;;;;4968309;28;20217;-67
2020/12/13 11:33:03;;;;;;;20.90;9.50;;;4.10;99.90;;;;;;4990025;28;20698;-66
2020/12/13 11:35:29;;;;;;;19.20;9.17;;;4.10;99.90;;;;;;4938165;28;20233;-67
2020/12/13 11:37:58;;;;;;;18.23;9.27;;;4.10;99.90;;;;;;4958292;28;20295;-67
2020/12/13 11:40:25;;;;;;;18.47;9.07;;;4.20;99.90;;;;;;5007973;28;20215;-66
2020/12/13 11:42:54;;;;;;;20.60;9.37;;;4.20;99.90;;;;;;5016543;28;20240;-67
2020/12/13 11:45:21;;;;;;;28.03;11.43;;;4.30;99.90;;;;;;5020148;28;20215;-67
2020/12/13 11:47:52;;;;;;;20.07;9.33;;;4.30;99.90;;;;;;5024146;28;20214;-67
2020/12/13 11:50:19;;;;;;;20.37;8.83;;;4.30;99.90;;;;;;5025686;28;20264;-66
2020/12/13 11:52:45;;;;;;;14.33;7.77;;;4.30;99.90;;;;;;5026687;28;20296;-67
2020/12/13 11:55:12;;;;;;;17.57;8.33;;;4.40;99.90;;;;;;5026459;28;20217;-67
2020/12/13 11:57:42;;;;;;;16.90;8.30;;;4.40;99.90;;;;;;5025791;28;20261;-67
2020/12/13 12:00:08;;;;;;;20.33;9.03;;;4.40;99.90;;;;;;5028061;28;20206;-66
2020/12/13 12:02:42;;;;;;;22.07;9.93;;;4.30;99.90;;;;;;5027861;28;20199;-66
2020/12/13 12:05:10;;;;;;;19.93;9.60;;;4.30;99.90;;;;;;5044769;28;20212;-67
2020/12/13 12:07:39;;;;;;;19.67;9.17;;;4.30;99.90;;;;;;5049099;28;20205;-67
2020/12/13 12:10:06;;;;;;;27.37;11.80;;;4.20;99.90;;;;;;5001110;28;20743;-67
2020/12/13 12:12:33;;;;;;;25.30;11.27;;;4.20;99.90;;;;;;5026901;28;20753;-66
2020/12/13 12:15:02;;;;;;;20.40;9.43;;;4.10;99.90;;;;;;5027728;28;20705;-66
2020/12/13 12:17:29;;;;;;;16.27;9.17;;;4.00;99.90;;;;;;4996871;28;20207;-66
2020/12/13 12:19:55;;;;;;;16.13;7.87;;;4.10;99.90;;;;;;5021362;28;20232;-66
2020/12/13 12:22:23;;;;;;;19.97;9.30;;;4.10;99.90;;;;;;5018547;28;20216;-66
2020/12/13 12:24:50;;;;;;;18.80;8.53;;;4.10;99.90;;;;;;5040799;28;20770;-67
2020/12/13 12:27:20;;;;;;;24.13;10.53;;;4.10;99.90;;;;;;5043425;28;20224;-68
2020/12/13 12:29:47;;;;;;;27.50;11.63;;;4.10;99.90;;;;;;5043865;28;20731;-67
2020/12/13 12:32:14;;;;;;;33.77;12.70;;;4.00;99.90;;;;;;5044509;28;20216;-67
2020/12/13 12:34:41;;;;;;;30.27;12.87;;;4.00;99.90;;;;;;5037118;28;20213;-66
2020/12/13 12:37:07;;;;;;;29.20;13.43;;;4.00;99.90;;;;;;5034140;28;20217;-67
2020/12/13 12:39:35;;;;;;;30.50;13.67;;;4.00;99.90;;;;;;5043341;28;20256;-67
2020/12/13 12:42:04;;;;;;;26.00;11.23;;;3.90;99.90;;;;;;5043887;28;20213;-68
2020/12/13 12:44:30;;;;;;;23.97;10.53;;;3.90;99.90;;;;;;5045467;28;20202;-66
2020/12/13 12:46:57;;;;;;;23.03;10.93;;;3.90;99.90;;;;;;5047187;28;20194;-67
2020/12/13 12:49:27;;;;;;;25.40;11.10;;;4.00;99.90;;;;;;5080846;28;20259;-66